Capitol Logistics 432


KMIA
Miami International Airport
Miami, Florida, US
KBNA
Nashville International Airport
Nashville, Tennessee, US

Activity Log

Date Flight Route Aircraft Duration
06/23/2019 CPX432 WINCO2 WINCO CHRRI Q118 ATL WESSN JAGIR SWFFT2 B752 2h 02m
06/08/2019 CPX432 WINCO2 WINCO CHRRI Q118 ATL WESSN JAGIR SWFFT2 B752 2h 02m
06/05/2019 CPX432 WINCO2 WINCO CHRRI ATL WESSN JAGIR SWFFT2 B752 2h 25m
02/11/2019 CPX432 WINCO2 WINCO CHRRI Q118 ATL WESSN JAGIR SWFFT2 B752 2h 02m

Route Details

Aircraft Information
Primary: Boeing 757-200SF
Backup: Boeing 737-800BCF
Route Data
Distance: 702nm
Sched. Duration: 2h 04m
Avg. Duration: 2h 08m (+3m)
Times Flown: 4
Recm'd Route: WINCO2 WINCO CHRRI Q118 ATL WESSN JAGIR SWFFT2
Planned Altitude: 38,000ft
Origin Wx: KMIA 312219Z 04008KT 10SM VCTS -RA SCT019CB BKN028 BKN070 BKN250 26/24 A3005 RMK AO2 LTG DSNT N RAB04 OCNL LTGIC DSNT N CB SW-W AND DSNT NW-N MOV W P0021 T02560244 $
Dest. Wx: KBNA 312153Z 18007KT 10SM FEW180 SCT250 18/08 A3019 RMK AO2 SLP223 T01830078
Notes:

Financial History
Total Freight: 221,638lbs
Average Load: 55,410lbs/flt
Fuel Used: 67,973lbs
Avg. Fuel Used: 16,993lbs/flt
Fuel Expense: $83,607
Avg. Fuel Expense: $20,902
Avg. Fuel Cost: $1.23/lbs
Total Gross Income: $290,346
Pilot Pay: $596
Total Expenses: $31,565
Total Revenue: $173,171
Average Revenue: $72,586.45